createdAt,value
2022-08-06T00:00:09.381Z,0.00
2022-08-06T00:01:05.061Z,0.00
2022-08-06T00:02:03.800Z,0.00
2022-08-06T00:03:03.679Z,0.00
2022-08-06T00:04:03.669Z,0.00
2022-08-06T00:05:06.501Z,0.00
2022-08-06T00:06:03.755Z,0.00
2022-08-06T00:07:03.644Z,0.00
2022-08-06T00:08:03.629Z,0.00
2022-08-06T00:09:05.181Z,0.00
2022-08-06T00:10:03.606Z,0.00
2022-08-06T00:11:03.593Z,0.00
2022-08-06T00:12:03.587Z,0.00
2022-08-06T00:13:04.712Z,0.00
2022-08-06T00:14:08.046Z,0.00
2022-08-06T00:15:12.670Z,0.00
2022-08-06T00:16:09.363Z,0.00
2022-08-06T00:17:03.522Z,0.00
2022-08-06T00:18:03.512Z,0.00
2022-08-06T00:19:04.085Z,0.00
2022-08-06T00:20:03.808Z,0.00
2022-08-06T00:21:41.529Z,0.00
2022-08-06T00:22:04.492Z,0.00
2022-08-06T00:23:03.521Z,0.00
2022-08-06T00:24:03.447Z,0.00
2022-08-06T00:25:03.443Z,0.00
2022-08-06T00:26:03.432Z,0.00
2022-08-06T00:27:05.526Z,0.00
2022-08-06T00:28:09.703Z,0.00
2022-08-06T00:29:04.883Z,0.00
2022-08-06T00:30:05.973Z,0.00
2022-08-06T00:31:06.376Z,0.00
2022-08-06T00:32:03.353Z,0.00
2022-08-06T00:33:03.340Z,0.00
2022-08-06T00:34:03.330Z,0.00
2022-08-06T00:35:03.328Z,0.00
2022-08-06T00:36:03.309Z,0.00
2022-08-06T00:37:03.297Z,0.00
2022-08-06T00:38:03.289Z,0.00
2022-08-06T00:39:09.240Z,0.00
2022-08-06T00:40:03.266Z,0.00
2022-08-06T00:41:03.259Z,0.00
2022-08-06T00:42:03.241Z,0.00
2022-08-06T00:43:06.360Z,0.00
2022-08-06T00:44:04.163Z,0.00
2022-08-06T00:45:03.210Z,0.00
2022-08-06T00:46:03.196Z,0.00
2022-08-06T00:47:11.723Z,0.00
2022-08-06T00:48:07.122Z,0.00
2022-08-06T00:49:11.264Z,0.00
2022-08-06T00:50:06.474Z,0.00
2022-08-06T00:51:03.146Z,0.00
2022-08-06T00:52:03.128Z,0.00
2022-08-06T00:53:03.133Z,0.00
2022-08-06T00:54:03.142Z,0.00
2022-08-06T00:55:03.095Z,0.00
2022-08-06T00:56:08.544Z,0.00
2022-08-06T00:57:03.086Z,0.00
2022-08-06T00:58:03.062Z,0.00
2022-08-06T00:59:03.639Z,0.00
2022-08-06T01:00:03.110Z,0.00
2022-08-06T01:01:04.057Z,0.00
2022-08-06T01:02:03.071Z,0.00
2022-08-06T01:03:04.038Z,0.00
2022-08-06T01:04:02.997Z,0.00
2022-08-06T01:05:34.039Z,0.00
2022-08-06T01:06:54.897Z,0.00
2022-08-06T01:07:04.362Z,0.00
2022-08-06T01:08:02.953Z,0.00
2022-08-06T01:09:02.939Z,0.00
2022-08-06T01:10:02.933Z,0.00
2022-08-06T01:11:02.990Z,0.00
2022-08-06T01:12:03.620Z,0.00
2022-08-06T01:13:04.326Z,0.00
2022-08-06T01:14:06.062Z,0.00
2022-08-06T01:15:04.587Z,0.00
2022-08-06T01:16:09.208Z,0.00
2022-08-06T01:17:16.081Z,0.00
2022-08-06T01:18:02.840Z,0.00
2022-08-06T01:19:02.828Z,0.00
2022-08-06T01:21:58.579Z,0.00
2022-08-06T01:21:58.874Z,0.00
2022-08-06T01:22:32.055Z,0.00
2022-08-06T01:23:03.812Z,0.00
2022-08-06T01:24:02.774Z,0.00
2022-08-06T01:25:03.939Z,0.00
2022-08-06T01:26:02.753Z,0.00
2022-08-06T01:27:02.739Z,0.00
2022-08-06T01:28:02.732Z,0.00
2022-08-06T01:29:02.717Z,0.00
2022-08-06T01:30:02.713Z,0.00
2022-08-06T01:31:02.709Z,0.00
2022-08-06T01:32:02.688Z,0.00
2022-08-06T01:33:04.487Z,0.00
2022-08-06T01:34:02.667Z,0.00
2022-08-06T01:35:02.654Z,0.00
2022-08-06T01:36:02.641Z,0.00
2022-08-06T01:37:02.629Z,0.00
2022-08-06T01:38:02.628Z,0.00
2022-08-06T01:39:02.765Z,0.00
2022-08-06T01:40:04.616Z,0.00
2022-08-06T01:41:02.591Z,0.00
2022-08-06T01:42:02.623Z,0.00
2022-08-06T01:43:02.638Z,0.00
2022-08-06T01:44:06.962Z,0.00
2022-08-06T01:45:02.624Z,0.00
2022-08-06T01:46:02.693Z,0.00
2022-08-06T01:47:05.554Z,0.00
2022-08-06T01:48:03.541Z,0.00
2022-08-06T01:49:09.697Z,0.00
2022-08-06T01:50:04.070Z,0.00
2022-08-06T01:51:02.555Z,0.00
2022-08-06T01:52:14.708Z,0.00
2022-08-06T01:53:02.467Z,0.00
2022-08-06T01:54:06.735Z,0.00
2022-08-06T01:55:02.500Z,0.00
2022-08-06T01:56:02.425Z,0.00
2022-08-06T01:57:02.412Z,0.00
2022-08-06T01:58:19.142Z,0.00
2022-08-06T01:59:04.514Z,0.00
2022-08-06T02:00:02.381Z,0.00
2022-08-06T02:01:03.905Z,0.00
2022-08-06T02:02:03.297Z,0.00
2022-08-06T02:03:04.188Z,0.00
2022-08-06T02:04:02.343Z,0.00
2022-08-06T02:05:09.246Z,0.00
2022-08-06T02:06:03.347Z,0.00
2022-08-06T02:07:02.305Z,0.00
2022-08-06T02:08:37.346Z,0.00
2022-08-06T02:09:21.842Z,0.00
2022-08-06T02:10:03.314Z,0.00
2022-08-06T02:12:02.015Z,0.00
2022-08-06T02:12:06.588Z,0.00
2022-08-06T02:13:02.850Z,0.00
2022-08-06T02:14:02.321Z,0.00
2022-08-06T02:15:02.217Z,0.00
2022-08-06T02:16:02.206Z,0.00
2022-08-06T02:17:13.990Z,0.00
2022-08-06T02:18:06.315Z,0.00
2022-08-06T02:19:03.914Z,0.00
2022-08-06T02:20:18.445Z,0.00
2022-08-06T02:21:18.720Z,0.00
2022-08-06T02:22:02.144Z,0.00
2022-08-06T02:23:02.129Z,0.00
2022-08-06T02:24:02.121Z,0.00
2022-08-06T02:25:02.653Z,0.00
2022-08-06T02:26:02.099Z,0.00
2022-08-06T02:27:02.096Z,0.00
2022-08-06T02:28:02.080Z,0.00
2022-08-06T02:29:02.070Z,0.00
2022-08-06T02:30:06.409Z,0.00
2022-08-06T02:31:02.042Z,0.00
2022-08-06T02:32:02.246Z,0.00
2022-08-06T02:33:02.866Z,0.00
2022-08-06T02:34:02.742Z,0.00
2022-08-06T02:35:03.037Z,0.00
2022-08-06T02:36:02.606Z,0.00
2022-08-06T02:37:01.983Z,0.00
2022-08-06T02:38:08.802Z,0.00
2022-08-06T02:39:04.232Z,0.00
2022-08-06T02:40:01.985Z,0.00
2022-08-06T02:41:02.820Z,0.00
2022-08-06T02:42:01.928Z,0.00
2022-08-06T02:43:01.915Z,0.00
2022-08-06T02:44:01.909Z,0.00
2022-08-06T02:45:01.894Z,0.00
2022-08-06T02:46:01.878Z,0.00
2022-08-06T02:47:03.300Z,0.00
2022-08-06T02:48:02.514Z,0.00
2022-08-06T02:49:01.842Z,0.00
2022-08-06T02:50:01.836Z,0.00
2022-08-06T02:51:01.822Z,0.00
2022-08-06T02:52:17.785Z,0.00
2022-08-06T02:53:03.667Z,0.00
2022-08-06T02:54:04.272Z,0.00
2022-08-06T02:55:01.781Z,0.00
2022-08-06T02:56:01.895Z,0.00
2022-08-06T02:57:01.757Z,0.00
2022-08-06T02:58:01.747Z,0.00
2022-08-06T02:59:01.737Z,0.00
2022-08-06T03:00:01.725Z,0.00
2022-08-06T03:01:01.835Z,0.00
2022-08-06T03:02:05.330Z,0.00
2022-08-06T03:03:01.690Z,0.00
2022-08-06T03:04:01.681Z,0.00
2022-08-06T03:05:01.955Z,0.00
2022-08-06T03:06:01.658Z,0.00
2022-08-06T03:07:01.645Z,4.00
2022-08-06T03:08:01.635Z,4.00
2022-08-06T03:09:01.627Z,4.00
2022-08-06T03:10:01.614Z,0.00
2022-08-06T03:11:01.603Z,4.00
2022-08-06T03:12:01.592Z,4.00
2022-08-06T03:13:03.718Z,4.00
2022-08-06T03:14:01.573Z,4.00
2022-08-06T03:15:07.338Z,8.00
2022-08-06T03:16:02.595Z,4.00
2022-08-06T03:17:01.538Z,8.00
2022-08-06T03:18:01.534Z,8.00
2022-08-06T03:19:55.927Z,12.00
2022-08-06T03:20:01.507Z,12.00
2022-08-06T03:21:01.496Z,16.00
2022-08-06T03:22:01.481Z,16.00
2022-08-06T03:23:01.653Z,16.00
2022-08-06T03:24:01.459Z,20.00
2022-08-06T03:25:03.469Z,24.00
2022-08-06T03:26:05.028Z,24.00
2022-08-06T03:27:01.429Z,28.00
2022-08-06T03:28:02.316Z,36.00
2022-08-06T03:29:01.405Z,40.00
2022-08-06T03:30:02.260Z,48.00
2022-08-06T03:31:01.382Z,52.00
2022-08-06T03:32:13.676Z,60.00
2022-08-06T03:33:07.729Z,68.00
2022-08-06T03:34:03.937Z,76.00
2022-08-06T03:35:01.342Z,88.00
2022-08-06T03:36:01.393Z,100.00
2022-08-06T03:37:01.317Z,112.00
2022-08-06T03:38:02.319Z,128.00
2022-08-06T03:39:01.350Z,140.00
2022-08-06T03:40:01.989Z,156.00
2022-08-06T03:41:01.734Z,176.00
2022-08-06T03:42:07.701Z,192.00
2022-08-06T03:43:01.253Z,212.00
2022-08-06T03:44:04.108Z,232.00
2022-08-06T03:45:01.235Z,256.00
2022-08-06T03:46:01.215Z,280.00
2022-08-06T03:47:01.211Z,304.00
2022-08-06T03:48:07.427Z,336.00
2022-08-06T03:49:01.194Z,364.00
2022-08-06T03:50:01.176Z,392.00
2022-08-06T03:51:01.161Z,424.00
2022-08-06T03:52:01.153Z,456.00
2022-08-06T03:53:01.139Z,492.00
2022-08-06T03:54:01.129Z,528.00
2022-08-06T03:55:04.997Z,568.00
2022-08-06T03:56:01.115Z,608.00
2022-08-06T03:57:01.097Z,652.00
2022-08-06T03:58:01.088Z,692.00
2022-08-06T03:59:01.075Z,736.00
2022-08-06T04:00:01.115Z,780.00
2022-08-06T04:01:02.226Z,824.00
2022-08-06T04:02:01.041Z,872.00
2022-08-06T04:03:02.804Z,916.00
2022-08-06T04:04:01.020Z,968.00
2022-08-06T04:05:02.039Z,1016.00
2022-08-06T04:06:00.998Z,1064.00
2022-08-06T04:07:02.790Z,1120.00
2022-08-06T04:08:03.471Z,1168.00
2022-08-06T04:09:00.965Z,1220.00
2022-08-06T04:10:01.664Z,1272.00
2022-08-06T04:11:00.947Z,1324.00
2022-08-06T04:12:37.324Z,1376.00
2022-08-06T04:13:08.375Z,1432.00
2022-08-06T04:14:05.800Z,1480.00
2022-08-06T04:15:04.562Z,1536.00
2022-08-06T04:16:01.943Z,1588.00
2022-08-06T04:17:00.879Z,1640.00
2022-08-06T04:18:00.867Z,1696.00
2022-08-06T04:19:00.856Z,1748.00
2022-08-06T04:20:00.847Z,1804.00
2022-08-06T04:21:20.057Z,1856.00
2022-08-06T04:22:57.047Z,1908.00
2022-08-06T04:23:09.711Z,1956.00
2022-08-06T04:24:01.827Z,2012.00
2022-08-06T04:25:00.791Z,2064.00
2022-08-06T04:26:00.779Z,2116.00
2022-08-06T04:27:00.770Z,2168.00
2022-08-06T04:28:00.757Z,2216.00
2022-08-06T04:29:00.748Z,2268.00
2022-08-06T04:30:02.262Z,2320.00
2022-08-06T04:31:00.727Z,2368.00
2022-08-06T04:32:13.506Z,2412.00
2022-08-06T04:33:01.757Z,2464.00
2022-08-06T04:34:00.694Z,2516.00
2022-08-06T04:36:04.543Z,2564.00
2022-08-06T04:36:04.545Z,2612.00
2022-08-06T04:37:01.343Z,2656.00
2022-08-06T04:38:00.648Z,2700.00
2022-08-06T04:39:00.727Z,2752.00
2022-08-06T04:40:00.703Z,2792.00
2022-08-06T04:41:03.129Z,2836.00
2022-08-06T04:42:05.629Z,2884.00
2022-08-06T04:43:00.600Z,2932.00
2022-08-06T04:44:00.581Z,2984.00
2022-08-06T04:45:00.732Z,3036.00
2022-08-06T04:46:17.678Z,3208.00
2022-08-06T04:47:00.549Z,3288.00
2022-08-06T04:48:00.538Z,3220.00
2022-08-06T04:49:01.731Z,3272.00
2022-08-06T04:50:02.220Z,3324.00
2022-08-06T04:51:00.506Z,3388.00
2022-08-06T04:52:34.590Z,3448.00
2022-08-06T04:53:00.487Z,3508.00
2022-08-06T04:54:00.470Z,3560.00
2022-08-06T04:55:00.467Z,3612.00
2022-08-06T04:56:03.398Z,3680.00
2022-08-06T04:57:00.476Z,3748.00
2022-08-06T04:58:03.518Z,3800.00
2022-08-06T04:59:01.445Z,4072.00
2022-08-06T05:00:00.410Z,4420.00
2022-08-06T05:01:10.235Z,4804.00
2022-08-06T05:02:01.021Z,5280.00
2022-08-06T05:03:00.382Z,6028.00
2022-08-06T05:04:08.729Z,8276.00
2022-08-06T05:05:01.738Z,8752.00
2022-08-06T05:06:00.605Z,8480.00
2022-08-06T05:07:00.336Z,8228.00
2022-08-06T05:08:01.407Z,8308.00
2022-08-06T05:09:00.333Z,8448.00
2022-08-06T05:10:00.299Z,8732.00
2022-08-06T05:11:00.287Z,8772.00
2022-08-06T05:12:00.274Z,8736.00
2022-08-06T05:13:00.264Z,8916.00
2022-08-06T05:14:01.316Z,9032.00
2022-08-06T05:15:00.241Z,9300.00
2022-08-06T05:16:00.232Z,9420.00
2022-08-06T05:17:00.224Z,9468.00
2022-08-06T05:18:00.249Z,9580.00
2022-08-06T05:19:19.540Z,9820.00
2022-08-06T05:20:01.216Z,10232.00
2022-08-06T05:21:00.183Z,10404.00
2022-08-06T05:22:10.967Z,10360.00
2022-08-06T05:23:01.050Z,10652.00
2022-08-06T05:24:00.142Z,10796.00
2022-08-06T05:25:01.817Z,10948.00
2022-08-06T05:26:00.121Z,11324.00
2022-08-06T05:27:00.111Z,11780.00
2022-08-06T05:28:10.651Z,12204.00
2022-08-06T05:29:00.091Z,12544.00
2022-08-06T05:30:00.099Z,12460.00
2022-08-06T05:31:00.081Z,11824.00
2022-08-06T05:32:02.665Z,11008.00
2022-08-06T05:33:02.348Z,10840.00
2022-08-06T05:34:00.033Z,12136.00
2022-08-06T05:35:00.025Z,12300.00
2022-08-06T05:36:02.519Z,12672.00
2022-08-06T05:37:00.002Z,13108.00
2022-08-06T05:38:02.259Z,13096.00
2022-08-06T05:39:00.076Z,12864.00
2022-08-06T05:40:00.057Z,14724.00
2022-08-06T05:41:00.377Z,15840.00
2022-08-06T05:42:01.145Z,16288.00
2022-08-06T05:42:59.932Z,16416.00
2022-08-06T05:44:02.433Z,16256.00
2022-08-06T05:45:00.793Z,13352.00
2022-08-06T05:45:59.897Z,11884.00
2022-08-06T05:46:59.891Z,8904.00
2022-08-06T05:47:59.876Z,6856.00
2022-08-06T05:48:59.871Z,6744.00
2022-08-06T05:50:00.945Z,8120.00
2022-08-06T05:50:59.850Z,8892.00
2022-08-06T05:51:59.880Z,8600.00
2022-08-06T05:52:59.823Z,8048.00
2022-08-06T05:54:02.734Z,9844.00
2022-08-06T05:54:59.801Z,11504.00
2022-08-06T05:55:59.791Z,10988.00
2022-08-06T05:57:04.961Z,10720.00
2022-08-06T05:58:00.125Z,12216.00
2022-08-06T05:58:59.757Z,13236.00
2022-08-06T05:59:59.744Z,9400.00
2022-08-06T06:00:59.738Z,10972.00
2022-08-06T06:01:59.745Z,13740.00
2022-08-06T06:03:02.420Z,14344.00
2022-08-06T06:03:59.819Z,14608.00
2022-08-06T06:06:02.790Z,10540.00
2022-08-06T06:06:07.098Z,11556.00
2022-08-06T06:07:02.376Z,8268.00
2022-08-06T06:08:07.758Z,7620.00
2022-08-06T06:09:02.013Z,7124.00
2022-08-06T06:10:03.872Z,6636.00
2022-08-06T06:10:59.704Z,6232.00
2022-08-06T06:12:02.105Z,6260.00
2022-08-06T06:12:59.605Z,6524.00
2022-08-06T06:14:00.081Z,6424.00
2022-08-06T06:14:59.599Z,6476.00
2022-08-06T06:16:04.798Z,6400.00
2022-08-06T06:16:59.564Z,6368.00
2022-08-06T06:18:01.981Z,6560.00
2022-08-06T06:18:59.888Z,6788.00
2022-08-06T06:19:59.528Z,8428.00
2022-08-06T06:21:17.774Z,10628.00
2022-08-06T06:22:00.538Z,7284.00
2022-08-06T06:22:59.494Z,6572.00
2022-08-06T06:23:59.484Z,6540.00
2022-08-06T06:24:59.512Z,6516.00
2022-08-06T06:25:59.492Z,6532.00
2022-08-06T06:26:59.452Z,6544.00
2022-08-06T06:27:59.439Z,6548.00
2022-08-06T06:28:59.429Z,6560.00
2022-08-06T06:30:05.896Z,6584.00
2022-08-06T06:31:02.636Z,6596.00
2022-08-06T06:32:07.077Z,6644.00
2022-08-06T06:33:00.412Z,7164.00
2022-08-06T06:33:59.699Z,6672.00
2022-08-06T06:34:59.361Z,6808.00
2022-08-06T06:35:59.369Z,6956.00
2022-08-06T06:36:59.381Z,7012.00
2022-08-06T06:37:59.330Z,9124.00
2022-08-06T06:38:59.446Z,10444.00
2022-08-06T06:39:59.797Z,10796.00
2022-08-06T06:41:03.226Z,8308.00
2022-08-06T06:42:00.332Z,8980.00
2022-08-06T06:43:00.236Z,6976.00
2022-08-06T06:43:59.263Z,12548.00
2022-08-06T06:45:04.599Z,17508.00
2022-08-06T06:46:07.647Z,27520.00
2022-08-06T06:46:59.245Z,61792.00
2022-08-06T06:47:59.831Z,28512.00
2022-08-06T06:48:59.209Z,15124.00
2022-08-06T06:50:03.594Z,11596.00
2022-08-06T06:51:01.255Z,19648.00
2022-08-06T06:52:03.053Z,28096.00
2022-08-06T06:52:59.164Z,33792.00
2022-08-06T06:54:06.367Z,30592.00
2022-08-06T06:55:05.402Z,13060.00
2022-08-06T06:56:03.913Z,19648.00
2022-08-06T06:56:59.118Z,11912.00
2022-08-06T06:57:59.124Z,17632.00
2022-08-06T06:58:59.130Z,19712.00
2022-08-06T07:00:04.790Z,28448.00
2022-08-06T07:01:14.259Z,46720.00
2022-08-06T07:02:04.210Z,46144.00
2022-08-06T07:03:00.304Z,41152.00
2022-08-06T07:03:59.046Z,45568.00
2022-08-06T07:04:59.558Z,46848.00
2022-08-06T07:06:03.046Z,47328.00
2022-08-06T07:07:07.856Z,47424.00
2022-08-06T07:08:00.027Z,50688.00
2022-08-06T07:08:58.989Z,49056.00
2022-08-06T07:09:59.845Z,49120.00
2022-08-06T07:10:59.018Z,50304.00
2022-08-06T07:12:02.912Z,49600.00
2022-08-06T07:12:58.946Z,52032.00
2022-08-06T07:13:59.235Z,53248.00
2022-08-06T07:15:01.366Z,51872.00
2022-08-06T07:15:58.922Z,53664.00
2022-08-06T07:16:58.901Z,51808.00
2022-08-06T07:17:59.382Z,51616.00
2022-08-06T07:18:59.906Z,53344.00
2022-08-06T07:19:58.865Z,53792.00
2022-08-06T07:20:58.859Z,52608.00
2022-08-06T07:21:58.868Z,52320.00
2022-08-06T07:24:04.503Z,51552.00
2022-08-06T07:24:08.535Z,54624.00
2022-08-06T07:25:00.779Z,58464.00
2022-08-06T07:25:59.555Z,57376.00
2022-08-06T07:26:58.795Z,56960.00
2022-08-06T07:27:59.794Z,56192.00
2022-08-06T07:29:03.306Z,57600.00
2022-08-06T07:29:59.555Z,56576.00
2022-08-06T07:31:03.582Z,57728.00
2022-08-06T07:31:58.760Z,59360.00
2022-08-06T07:32:58.739Z,60256.00
2022-08-06T07:34:00.756Z,60704.00
2022-08-06T07:34:59.134Z,61824.00
2022-08-06T07:35:58.699Z,63648.00
2022-08-06T07:36:58.687Z,63232.00
2022-08-06T07:37:58.684Z,62496.00
2022-08-06T07:38:58.760Z,62752.00
2022-08-06T07:39:58.657Z,60288.00
2022-08-06T07:40:58.649Z,59392.00
2022-08-06T07:42:10.841Z,62112.00
2022-08-06T07:42:58.626Z,62560.00
2022-08-06T07:43:58.616Z,64288.00
2022-08-06T07:44:58.628Z,64992.00
2022-08-06T07:45:58.612Z,68320.00
2022-08-06T07:46:58.581Z,65952.00
2022-08-06T07:47:58.985Z,64224.00
2022-08-06T07:48:58.564Z,63328.00
2022-08-06T07:50:01.198Z,67104.00
2022-08-06T07:50:58.545Z,64256.00
2022-08-06T07:51:58.528Z,65888.00
2022-08-06T07:52:58.517Z,61792.00
2022-08-06T07:54:02.772Z,63008.00
2022-08-06T07:54:58.494Z,63424.00
2022-08-06T07:55:58.487Z,72864.00
2022-08-06T07:57:00.171Z,70624.00
2022-08-06T07:57:59.711Z,10580.00
2022-08-06T07:58:58.463Z,74592.00
2022-08-06T07:59:58.447Z,78176.00
2022-08-06T08:00:58.435Z,78176.00
2022-08-06T08:01:58.677Z,75392.00
2022-08-06T08:02:58.417Z,14220.00
2022-08-06T08:03:59.427Z,9656.00
2022-08-06T08:04:58.398Z,70656.00
2022-08-06T08:06:01.204Z,71872.00
2022-08-06T08:06:58.371Z,69312.00
2022-08-06T08:07:58.491Z,71936.00
2022-08-06T08:08:58.391Z,73344.00
2022-08-06T08:10:02.039Z,70752.00
2022-08-06T08:10:58.376Z,76224.00
2022-08-06T08:12:26.261Z,72768.00
2022-08-06T08:13:02.358Z,73248.00
2022-08-06T08:13:58.299Z,70400.00
2022-08-06T08:14:59.539Z,72032.00
2022-08-06T08:15:58.278Z,70784.00
2022-08-06T08:16:58.266Z,72224.00
2022-08-06T08:17:58.789Z,69920.00
2022-08-06T08:18:58.254Z,71296.00
2022-08-06T08:19:59.288Z,72896.00
2022-08-06T08:20:58.240Z,16896.00
2022-08-06T08:21:58.217Z,76000.00
2022-08-06T08:22:58.208Z,78528.00
2022-08-06T08:23:58.213Z,79168.00
2022-08-06T08:24:58.184Z,77888.00
2022-08-06T08:25:58.171Z,81536.00
2022-08-06T08:27:17.055Z,72416.00
2022-08-06T08:27:59.181Z,78592.00
2022-08-06T08:28:58.142Z,78784.00
2022-08-06T08:29:59.921Z,59392.00
2022-08-06T08:30:58.120Z,36448.00
2022-08-06T08:31:59.926Z,79520.00
2022-08-06T08:32:58.123Z,88064.00
2022-08-06T08:33:58.096Z,75840.00
2022-08-06T08:34:58.077Z,90496.00
2022-08-06T08:36:00.889Z,94624.00
2022-08-06T08:36:58.515Z,93504.00
2022-08-06T08:37:58.045Z,87744.00
2022-08-06T08:38:58.087Z,81920.00
2022-08-06T08:39:58.062Z,83808.00
2022-08-06T08:40:58.034Z,82848.00
2022-08-06T08:41:58.006Z,23776.00
2022-08-06T08:42:58.473Z,19264.00
2022-08-06T08:44:00.009Z,17824.00
2022-08-06T08:44:58.031Z,17088.00
2022-08-06T08:45:57.969Z,16896.00
2022-08-06T08:46:58.863Z,16432.00
2022-08-06T08:47:58.171Z,17088.00
2022-08-06T08:48:57.938Z,36448.00
2022-08-06T08:49:57.927Z,50944.00
2022-08-06T08:50:57.917Z,28544.00
2022-08-06T08:51:57.903Z,18720.00
2022-08-06T08:52:57.891Z,16684.00
2022-08-06T08:53:58.291Z,19328.00
2022-08-06T08:54:57.930Z,102144.00
2022-08-06T08:57:07.339Z,51008.00
2022-08-06T08:57:08.779Z,98336.00
2022-08-06T08:58:38.434Z,82464.00
2022-08-06T08:59:02.101Z,53888.00
2022-08-06T09:00:01.680Z,37696.00
2022-08-06T09:00:57.942Z,106528.00
2022-08-06T09:01:58.647Z,94304.00
2022-08-06T09:02:57.964Z,40064.00
2022-08-06T09:03:57.777Z,96608.00
2022-08-06T09:04:58.438Z,35712.00
2022-08-06T09:05:57.759Z,30368.00
2022-08-06T09:06:57.745Z,30240.00
2022-08-06T09:08:01.619Z,31264.00
2022-08-06T09:09:01.181Z,30560.00
2022-08-06T09:10:01.444Z,29824.00
2022-08-06T09:10:58.476Z,29664.00
2022-08-06T09:12:04.037Z,30272.00
2022-08-06T09:12:58.715Z,58176.00
2022-08-06T09:14:00.834Z,25920.00
2022-08-06T09:14:57.670Z,26208.00
2022-08-06T09:15:57.660Z,34144.00
2022-08-06T09:16:57.784Z,105152.00
2022-08-06T09:18:25.149Z,70752.00
2022-08-06T09:18:57.620Z,47712.00
2022-08-06T09:19:57.626Z,91424.00
2022-08-06T09:20:58.166Z,96064.00
2022-08-06T09:21:57.626Z,40992.00
2022-08-06T09:22:57.579Z,98176.00
2022-08-06T09:23:58.418Z,53824.00
2022-08-06T09:24:59.043Z,103456.00
2022-08-06T09:25:57.850Z,91776.00
2022-08-06T09:27:03.100Z,94752.00
2022-08-06T09:27:59.260Z,97088.00
2022-08-06T09:28:57.515Z,86752.00
2022-08-06T09:30:00.666Z,95008.00
2022-08-06T09:30:57.500Z,105536.00
2022-08-06T09:31:57.488Z,96960.00
2022-08-06T09:32:58.050Z,101376.00
2022-08-06T09:34:28.531Z,110624.00
2022-08-06T09:34:58.485Z,79808.00
2022-08-06T09:35:57.442Z,27552.00
2022-08-06T09:36:59.446Z,24224.00
2022-08-06T09:37:58.474Z,110048.00
2022-08-06T09:38:57.458Z,95776.00
2022-08-06T09:40:05.455Z,109728.00
2022-08-06T09:40:58.421Z,102208.00
2022-08-06T09:41:57.385Z,110464.00
2022-08-06T09:42:57.378Z,115008.00
2022-08-06T09:44:04.283Z,101632.00
2022-08-06T09:44:58.381Z,105472.00
2022-08-06T09:46:00.112Z,115968.00
2022-08-06T09:46:58.101Z,111168.00
2022-08-06T09:47:58.489Z,106592.00
2022-08-06T09:49:45.163Z,33088.00
2022-08-06T09:50:00.977Z,34656.00
2022-08-06T09:50:57.296Z,105088.00
2022-08-06T09:51:57.283Z,109120.00
2022-08-06T09:52:57.269Z,91744.00
2022-08-06T09:54:05.659Z,112384.00
2022-08-06T09:54:57.253Z,113376.00
2022-08-06T09:55:57.736Z,91008.00
2022-08-06T09:56:57.232Z,100384.00
2022-08-06T09:57:57.225Z,102368.00
2022-08-06T09:58:57.210Z,100512.00
2022-08-06T09:59:57.231Z,93024.00
2022-08-06T10:00:57.198Z,89120.00
2022-08-06T10:01:58.292Z,102752.00
2022-08-06T10:04:58.788Z,108000.00
2022-08-06T10:05:58.436Z,103264.00
2022-08-06T10:06:58.453Z,100704.00
2022-08-06T10:07:58.421Z,99616.00
2022-08-06T10:08:58.407Z,100704.00
2022-08-06T10:09:58.398Z,107520.00
2022-08-06T10:11:01.514Z,95296.00
2022-08-06T10:11:59.527Z,88864.00
2022-08-06T10:12:58.394Z,101600.00
2022-08-06T10:13:58.356Z,97376.00
2022-08-06T10:14:58.347Z,21344.00
2022-08-06T10:16:01.367Z,80000.00
2022-08-06T10:16:58.331Z,101440.00
2022-08-06T10:17:58.371Z,88896.00
2022-08-06T10:19:01.920Z,103072.00
2022-08-06T10:19:59.317Z,102112.00
2022-08-06T10:20:58.284Z,18464.00
2022-08-06T10:21:58.274Z,16464.00
2022-08-06T10:22:58.523Z,16132.00
2022-08-06T10:23:58.254Z,16752.00
2022-08-06T10:24:58.381Z,17792.00
2022-08-06T10:25:58.234Z,22688.00
2022-08-06T10:26:58.226Z,44224.00
2022-08-06T10:27:58.230Z,27168.00
2022-08-06T10:28:58.230Z,20032.00
2022-08-06T10:29:58.191Z,14808.00
2022-08-06T10:30:58.186Z,13736.00
2022-08-06T10:31:58.186Z,14192.00
2022-08-06T10:32:59.086Z,14292.00
2022-08-06T10:33:58.150Z,14400.00
2022-08-06T10:34:58.144Z,15448.00
2022-08-06T10:35:58.131Z,16268.00
2022-08-06T10:36:58.599Z,17952.00
2022-08-06T10:37:58.270Z,18784.00
2022-08-06T10:38:58.100Z,19200.00
2022-08-06T10:40:08.276Z,19040.00
2022-08-06T10:40:58.717Z,24608.00
2022-08-06T10:42:00.848Z,105376.00
2022-08-06T10:42:58.068Z,91520.00
2022-08-06T10:43:58.046Z,89312.00
2022-08-06T10:44:58.037Z,100768.00
2022-08-06T10:45:58.026Z,99488.00
2022-08-06T10:46:58.039Z,90496.00
2022-08-06T10:48:58.674Z,89856.00
2022-08-06T10:50:25.810Z,99360.00
2022-08-06T10:50:30.076Z,97216.00
2022-08-06T10:50:59.598Z,98464.00
2022-08-06T10:51:58.888Z,67712.00
2022-08-06T10:52:57.960Z,105472.00
2022-08-06T10:54:02.084Z,69888.00
2022-08-06T10:54:58.958Z,15344.00
2022-08-06T10:55:57.924Z,12668.00
2022-08-06T10:56:57.914Z,11600.00
2022-08-06T10:57:57.939Z,13436.00
2022-08-06T10:58:58.063Z,96640.00
2022-08-06T10:59:57.883Z,101760.00
2022-08-06T11:00:57.888Z,101728.00
2022-08-06T11:01:57.880Z,103040.00
2022-08-06T11:02:57.851Z,102784.00
2022-08-06T11:03:57.923Z,98912.00
2022-08-06T11:04:57.834Z,95904.00
2022-08-06T11:05:57.817Z,98176.00
2022-08-06T11:06:57.812Z,90912.00
2022-08-06T11:08:08.681Z,79776.00
2022-08-06T11:09:00.032Z,68512.00
2022-08-06T11:10:01.802Z,124736.00
2022-08-06T11:10:57.814Z,86080.00
2022-08-06T11:12:05.644Z,18368.00
2022-08-06T11:12:57.750Z,16696.00
2022-08-06T11:14:02.959Z,18432.00
2022-08-06T11:14:57.728Z,97600.00
2022-08-06T11:15:57.720Z,110336.00
2022-08-06T11:16:57.931Z,122368.00
2022-08-06T11:17:57.697Z,98752.00
2022-08-06T11:18:57.691Z,102848.00
2022-08-06T11:19:58.748Z,119904.00
2022-08-06T11:20:58.076Z,109568.00
2022-08-06T11:22:01.945Z,25216.00
2022-08-06T11:22:59.540Z,25568.00
2022-08-06T11:24:01.121Z,135680.00
2022-08-06T11:24:57.629Z,125024.00
2022-08-06T11:25:57.619Z,118464.00
2022-08-06T11:27:01.550Z,112064.00
2022-08-06T11:28:04.830Z,108512.00
2022-08-06T11:28:58.650Z,118208.00
2022-08-06T11:30:04.413Z,112256.00
2022-08-06T11:30:58.534Z,100032.00
2022-08-06T11:31:57.682Z,96064.00
2022-08-06T11:32:57.555Z,98976.00
2022-08-06T11:33:57.566Z,101056.00
2022-08-06T11:34:57.532Z,100384.00
2022-08-06T11:35:59.475Z,98272.00
2022-08-06T11:36:58.427Z,106368.00
2022-08-06T11:38:00.630Z,107776.00
2022-08-06T11:39:00.114Z,104832.00
2022-08-06T11:39:57.509Z,112160.00
2022-08-06T11:40:57.472Z,75584.00
2022-08-06T11:41:58.958Z,110080.00
2022-08-06T11:42:57.450Z,60352.00
2022-08-06T11:44:03.227Z,113760.00
2022-08-06T11:44:58.825Z,37984.00
2022-08-06T11:46:20.540Z,23008.00
2022-08-06T11:46:57.425Z,18656.00
2022-08-06T11:47:57.403Z,19232.00
2022-08-06T11:48:57.402Z,28160.00
2022-08-06T11:49:57.732Z,116512.00
2022-08-06T11:50:57.377Z,102368.00
2022-08-06T11:52:04.383Z,30528.00
2022-08-06T11:52:58.379Z,126560.00
2022-08-06T11:53:57.341Z,23168.00
2022-08-06T11:54:57.337Z,65760.00
2022-08-06T11:55:57.388Z,63552.00
2022-08-06T11:56:57.598Z,104320.00
2022-08-06T11:57:57.344Z,112992.00
2022-08-06T11:58:57.306Z,116128.00
2022-08-06T11:59:57.287Z,102976.00
2022-08-06T12:00:57.886Z,102976.00
2022-08-06T12:01:57.315Z,109568.00
2022-08-06T12:02:57.468Z,113568.00
2022-08-06T12:03:57.244Z,80576.00
2022-08-06T12:04:57.233Z,27232.00
2022-08-06T12:05:58.370Z,24576.00
2022-08-06T12:06:57.214Z,21888.00
2022-08-06T12:07:57.234Z,20032.00
2022-08-06T12:08:57.195Z,18208.00
2022-08-06T12:09:57.470Z,16920.00
2022-08-06T12:10:57.177Z,16624.00
2022-08-06T12:11:57.168Z,17076.00
2022-08-06T12:12:57.471Z,18592.00
2022-08-06T12:14:32.145Z,20224.00